createdAt,value
2022-10-01T00:00:03.014Z,25.96
2022-10-01T00:00:13.247Z,25.95
2022-10-01T00:00:23.244Z,25.95
2022-10-01T00:00:33.362Z,25.95
2022-10-01T00:00:43.618Z,25.96
2022-10-01T00:00:53.619Z,25.96
2022-10-01T00:01:03.804Z,25.96
2022-10-01T00:01:14.094Z,25.96
2022-10-01T00:01:24.157Z,25.96
2022-10-01T00:01:34.403Z,25.96
2022-10-01T00:01:44.226Z,25.95
2022-10-01T00:01:54.348Z,25.96
2022-10-01T00:02:04.323Z,25.97
2022-10-01T00:02:14.318Z,25.97
2022-10-01T00:02:24.316Z,25.97
2022-10-01T00:02:34.363Z,25.98
2022-10-01T00:02:44.418Z,25.98
2022-10-01T00:02:54.478Z,25.97
2022-10-01T00:03:04.478Z,25.97
2022-10-01T00:03:14.571Z,25.97
2022-10-01T00:03:24.554Z,25.97
2022-10-01T00:03:34.678Z,25.97
2022-10-01T00:03:44.797Z,25.97
2022-10-01T00:03:54.802Z,25.97
2022-10-01T00:04:05.040Z,25.97
2022-10-01T00:04:15.157Z,25.98
2022-10-01T00:04:25.296Z,25.97
2022-10-01T00:04:35.397Z,25.97
2022-10-01T00:04:45.513Z,25.97
2022-10-01T00:04:55.643Z,25.97
2022-10-01T00:05:05.778Z,25.97
2022-10-01T00:05:15.892Z,25.96
2022-10-01T00:05:25.893Z,25.96
2022-10-01T00:05:36.146Z,25.97
2022-10-01T00:05:46.150Z,25.97
2022-10-01T00:05:56.273Z,25.97
2022-10-01T00:06:06.524Z,25.97
2022-10-01T00:06:16.643Z,25.98
2022-10-01T00:06:26.760Z,25.98
2022-10-01T00:06:36.890Z,25.97
2022-10-01T00:06:47.004Z,25.97
2022-10-01T00:06:57.119Z,25.97
2022-10-01T00:07:07.240Z,25.98
2022-10-01T00:07:17.357Z,25.98
2022-10-01T00:07:27.473Z,25.97
2022-10-01T00:07:37.603Z,25.98
2022-10-01T00:07:47.716Z,25.98
2022-10-01T00:07:57.851Z,25.98
2022-10-01T00:08:07.968Z,25.98
2022-10-01T00:08:18.081Z,25.97
2022-10-01T00:08:28.081Z,25.96
2022-10-01T00:08:38.335Z,25.97
2022-10-01T00:08:48.446Z,25.97
2022-10-01T00:08:58.563Z,25.96
2022-10-01T00:09:08.687Z,25.97
2022-10-01T00:09:18.814Z,25.97
2022-10-01T00:09:28.816Z,25.96
2022-10-01T00:09:39.071Z,25.96
2022-10-01T00:09:49.186Z,25.97
2022-10-01T00:09:59.309Z,25.97
2022-10-01T00:10:09.432Z,25.96
2022-10-01T00:10:19.549Z,25.96
2022-10-01T00:10:29.663Z,25.97
2022-10-01T00:10:39.785Z,25.97
2022-10-01T00:10:49.903Z,25.97
2022-10-01T00:11:00.024Z,25.96
2022-10-01T00:11:10.153Z,25.96
2022-10-01T00:11:20.271Z,25.97
2022-10-01T00:11:30.739Z,25.96
2022-10-01T00:11:40.621Z,25.96
2022-10-01T00:11:50.617Z,25.96
2022-10-01T00:12:00.734Z,25.96
2022-10-01T00:12:11.002Z,25.97
2022-10-01T00:12:21.131Z,25.97
2022-10-01T00:12:31.121Z,25.98
2022-10-01T00:12:41.382Z,25.98
2022-10-01T00:12:51.378Z,25.98
2022-10-01T00:13:01.495Z,25.98
2022-10-01T00:13:11.743Z,25.98
2022-10-01T00:13:21.861Z,25.97
2022-10-01T00:13:31.977Z,25.98
2022-10-01T00:13:42.100Z,25.97
2022-10-01T00:13:52.127Z,25.97
2022-10-01T00:14:02.129Z,25.97
2022-10-01T00:14:12.118Z,25.97
2022-10-01T00:14:22.240Z,25.97
2022-10-01T00:14:32.239Z,25.97
2022-10-01T00:14:42.356Z,25.96
2022-10-01T00:14:52.479Z,25.97
2022-10-01T00:15:05.999Z,25.97
2022-10-01T00:15:13.555Z,25.93
2022-10-01T00:15:22.716Z,25.93
2022-10-01T00:15:32.718Z,25.95
2022-10-01T00:15:42.837Z,25.94
2022-10-01T00:15:52.833Z,25.95
2022-10-01T00:16:02.958Z,25.95
2022-10-01T00:16:13.032Z,25.95
2022-10-01T00:16:23.141Z,25.95
2022-10-01T00:16:33.379Z,25.94
2022-10-01T00:16:43.431Z,25.94
2022-10-01T00:16:53.472Z,25.93
2022-10-01T00:17:03.480Z,25.93
2022-10-01T00:17:13.484Z,25.94
2022-10-01T00:17:23.605Z,25.94
2022-10-01T00:17:33.728Z,25.94
2022-10-01T00:17:43.725Z,25.94
2022-10-01T00:17:53.837Z,25.94
2022-10-01T00:18:03.982Z,25.94
2022-10-01T00:18:13.989Z,25.95
2022-10-01T00:18:24.104Z,25.95
2022-10-01T00:18:34.225Z,25.95
2022-10-01T00:18:44.343Z,25.95
2022-10-01T00:18:54.471Z,25.95
2022-10-01T00:19:04.581Z,25.95
2022-10-01T00:19:14.703Z,25.95
2022-10-01T00:19:24.816Z,25.95
2022-10-01T00:19:34.962Z,25.95
2022-10-01T00:19:44.939Z,25.95
2022-10-01T00:19:54.934Z,25.95
2022-10-01T00:20:10.684Z,25.96
2022-10-01T00:20:15.053Z,25.89
2022-10-01T00:20:25.171Z,25.91
2022-10-01T00:20:35.293Z,25.93
2022-10-01T00:20:45.437Z,25.93
2022-10-01T00:20:55.433Z,25.93
2022-10-01T00:21:05.553Z,25.94
2022-10-01T00:21:15.667Z,25.94
2022-10-01T00:21:25.790Z,25.94
2022-10-01T00:21:36.358Z,25.95
2022-10-01T00:21:45.937Z,25.94
2022-10-01T00:21:55.934Z,25.94
2022-10-01T00:22:05.951Z,25.95
2022-10-01T00:22:15.945Z,25.95
2022-10-01T00:22:26.060Z,25.95
2022-10-01T00:22:36.316Z,25.95
2022-10-01T00:22:46.433Z,25.95
2022-10-01T00:22:56.430Z,25.95
2022-10-01T00:23:06.686Z,25.95
2022-10-01T00:23:16.807Z,25.96
2022-10-01T00:23:26.924Z,25.96
2022-10-01T00:23:37.045Z,25.96
2022-10-01T00:23:47.040Z,25.97
2022-10-01T00:23:57.163Z,25.97
2022-10-01T00:24:07.411Z,25.97
2022-10-01T00:24:17.523Z,25.97
2022-10-01T00:24:27.641Z,25.97
2022-10-01T00:24:37.758Z,25.98
2022-10-01T00:24:47.876Z,25.96
2022-10-01T00:24:57.989Z,25.96
2022-10-01T00:25:08.109Z,25.96
2022-10-01T00:25:18.110Z,25.97
2022-10-01T00:25:28.230Z,25.96
2022-10-01T00:25:38.474Z,25.95
2022-10-01T00:25:48.593Z,25.95
2022-10-01T00:25:58.707Z,25.95
2022-10-01T00:26:08.831Z,25.95
2022-10-01T00:26:18.951Z,25.95
2022-10-01T00:26:29.071Z,25.95
2022-10-01T00:26:39.191Z,25.95
2022-10-01T00:26:49.191Z,25.95
2022-10-01T00:26:59.188Z,25.95
2022-10-01T00:27:09.575Z,25.95
2022-10-01T00:27:19.564Z,25.95
2022-10-01T00:27:29.681Z,25.95
2022-10-01T00:27:39.930Z,25.95
2022-10-01T00:27:50.129Z,25.95
2022-10-01T00:28:00.197Z,25.95
2022-10-01T00:28:10.369Z,25.96
2022-10-01T00:28:20.460Z,25.95
2022-10-01T00:28:30.464Z,25.95
2022-10-01T00:28:40.838Z,25.96
2022-10-01T00:28:50.844Z,25.97
2022-10-01T00:29:00.845Z,25.96
2022-10-01T00:29:11.220Z,25.97
2022-10-01T00:29:21.338Z,25.96
2022-10-01T00:29:31.457Z,25.97
2022-10-01T00:29:41.579Z,25.96
2022-10-01T00:29:51.694Z,25.96
2022-10-01T00:30:01.814Z,25.97
2022-10-01T00:30:11.934Z,25.97
2022-10-01T00:30:22.051Z,25.97
2022-10-01T00:30:32.178Z,25.97
2022-10-01T00:30:42.294Z,25.97
2022-10-01T00:30:52.410Z,25.97
2022-10-01T00:31:02.587Z,25.97
2022-10-01T00:31:12.757Z,25.97
2022-10-01T00:31:22.841Z,25.97
2022-10-01T00:31:33.189Z,25.97
2022-10-01T00:31:43.275Z,25.96
2022-10-01T00:31:53.291Z,25.96
2022-10-01T00:32:03.416Z,25.97
2022-10-01T00:32:13.620Z,25.96
2022-10-01T00:32:23.610Z,25.96
2022-10-01T00:32:33.738Z,25.97
2022-10-01T00:32:43.986Z,25.96
2022-10-01T00:32:54.106Z,25.97
2022-10-01T00:33:04.224Z,25.96
2022-10-01T00:33:14.347Z,25.97
2022-10-01T00:33:24.356Z,25.97
2022-10-01T00:33:34.479Z,25.96
2022-10-01T00:33:44.728Z,25.97
2022-10-01T00:33:54.847Z,25.97
2022-10-01T00:34:04.968Z,25.96
2022-10-01T00:34:15.097Z,25.97
2022-10-01T00:34:25.089Z,25.97
2022-10-01T00:34:35.203Z,25.96
2022-10-01T00:34:45.472Z,25.96
2022-10-01T00:34:55.600Z,25.96
2022-10-01T00:35:05.593Z,25.95
2022-10-01T00:35:15.844Z,25.95
2022-10-01T00:35:25.962Z,25.95
2022-10-01T00:35:36.078Z,25.95
2022-10-01T00:35:46.199Z,25.95
2022-10-01T00:35:56.319Z,25.94
2022-10-01T00:36:06.440Z,25.94
2022-10-01T00:36:16.569Z,25.95
2022-10-01T00:36:26.682Z,25.95
2022-10-01T00:36:36.798Z,25.94
2022-10-01T00:36:46.921Z,25.94
2022-10-01T00:36:57.037Z,25.94
2022-10-01T00:37:07.153Z,25.93
2022-10-01T00:37:17.278Z,25.94
2022-10-01T00:37:27.393Z,25.93
2022-10-01T00:37:37.509Z,25.93
2022-10-01T00:37:47.630Z,25.93
2022-10-01T00:37:57.753Z,25.93
2022-10-01T00:38:07.756Z,25.92
2022-10-01T00:38:18.007Z,25.93
2022-10-01T00:38:28.119Z,25.93
2022-10-01T00:38:38.238Z,25.92
2022-10-01T00:38:48.359Z,25.92
2022-10-01T00:38:58.475Z,25.92
2022-10-01T00:39:08.590Z,25.92
2022-10-01T00:39:18.713Z,25.92
2022-10-01T00:39:28.831Z,25.91
2022-10-01T00:39:38.948Z,25.91
2022-10-01T00:39:49.067Z,25.90
2022-10-01T00:39:59.199Z,25.89
2022-10-01T00:40:09.195Z,25.89
2022-10-01T00:40:19.446Z,25.89
2022-10-01T00:40:29.443Z,25.89
2022-10-01T00:40:39.562Z,25.89
2022-10-01T00:40:49.811Z,25.88
2022-10-01T00:40:59.941Z,25.88
2022-10-01T00:41:09.937Z,25.88
2022-10-01T00:41:20.196Z,25.87
2022-10-01T00:41:30.355Z,25.87
2022-10-01T00:41:40.247Z,25.87
2022-10-01T00:41:50.625Z,25.87
2022-10-01T00:42:00.742Z,25.87
2022-10-01T00:42:10.861Z,25.87
2022-10-01T00:42:20.999Z,25.86
2022-10-01T00:42:30.987Z,25.86
2022-10-01T00:42:41.103Z,25.86
2022-10-01T00:42:51.355Z,25.86
2022-10-01T00:43:01.352Z,25.85
2022-10-01T00:43:11.472Z,25.85
2022-10-01T00:43:21.728Z,25.85
2022-10-01T00:43:31.849Z,25.84
2022-10-01T00:43:41.959Z,25.84
2022-10-01T00:43:52.083Z,25.83
2022-10-01T00:44:02.199Z,25.83
2022-10-01T00:44:12.201Z,25.84
2022-10-01T00:44:22.458Z,25.84
2022-10-01T00:44:32.570Z,25.84
2022-10-01T00:44:42.679Z,25.83
2022-10-01T00:44:52.806Z,25.83
2022-10-01T00:45:02.805Z,25.83
2022-10-01T00:45:12.924Z,25.82
2022-10-01T00:45:23.171Z,25.82
2022-10-01T00:45:33.356Z,25.81
2022-10-01T00:45:43.419Z,25.81
2022-10-01T00:45:53.727Z,25.81
2022-10-01T00:46:03.775Z,25.80
2022-10-01T00:46:13.806Z,25.80
2022-10-01T00:46:23.827Z,25.80
2022-10-01T00:46:33.953Z,25.81
2022-10-01T00:46:43.957Z,25.81
2022-10-01T00:46:54.070Z,25.81
2022-10-01T00:47:04.073Z,25.80
2022-10-01T00:47:14.191Z,25.80
2022-10-01T00:47:24.308Z,25.80
2022-10-01T00:47:34.312Z,25.80
2022-10-01T00:47:44.432Z,25.81
2022-10-01T00:47:54.548Z,25.80
2022-10-01T00:48:04.553Z,25.80
2022-10-01T00:48:14.668Z,25.80
2022-10-01T00:48:24.785Z,25.80
2022-10-01T00:48:34.909Z,25.80
2022-10-01T00:48:44.908Z,25.79
2022-10-01T00:48:54.904Z,25.80
2022-10-01T00:49:05.279Z,25.78
2022-10-01T00:49:15.395Z,25.79
2022-10-01T00:49:25.512Z,25.79
2022-10-01T00:49:35.636Z,25.78
2022-10-01T00:49:45.634Z,25.78
2022-10-01T00:49:59.337Z,25.77
2022-10-01T00:50:06.130Z,25.73
2022-10-01T00:50:16.245Z,25.74
2022-10-01T00:50:26.362Z,25.75
2022-10-01T00:50:36.489Z,25.74
2022-10-01T00:50:46.601Z,25.75
2022-10-01T00:50:56.716Z,25.75
2022-10-01T00:51:06.849Z,25.76
2022-10-01T00:51:16.964Z,25.76
2022-10-01T00:51:27.077Z,25.76
2022-10-01T00:51:37.417Z,25.76
2022-10-01T00:51:47.299Z,25.76
2022-10-01T00:51:57.416Z,25.76
2022-10-01T00:52:07.534Z,25.75
2022-10-01T00:52:17.648Z,25.76
2022-10-01T00:52:27.774Z,25.75
2022-10-01T00:52:37.895Z,25.74
2022-10-01T00:52:48.008Z,25.74
2022-10-01T00:52:58.125Z,25.74
2022-10-01T00:53:08.253Z,25.74
2022-10-01T00:53:18.368Z,25.74
2022-10-01T00:53:28.484Z,25.74
2022-10-01T00:53:38.609Z,25.73
2022-10-01T00:53:48.608Z,25.73
2022-10-01T00:53:58.723Z,25.73
2022-10-01T00:54:08.970Z,25.72
2022-10-01T00:54:19.087Z,25.72
2022-10-01T00:54:29.201Z,25.72
2022-10-01T00:54:39.323Z,25.71
2022-10-01T00:54:49.437Z,25.72
2022-10-01T00:54:59.552Z,25.71
2022-10-01T00:55:09.677Z,25.70
2022-10-01T00:55:19.793Z,25.70
2022-10-01T00:55:29.789Z,25.70
2022-10-01T00:55:40.073Z,25.69
2022-10-01T00:55:50.057Z,25.70
2022-10-01T00:56:00.186Z,25.69
2022-10-01T00:56:10.440Z,25.68
2022-10-01T00:56:20.436Z,25.68
2022-10-01T00:56:30.555Z,25.68
2022-10-01T00:56:40.812Z,25.67
2022-10-01T00:56:50.931Z,25.67
2022-10-01T00:57:01.054Z,25.67
2022-10-01T00:57:11.188Z,25.66
2022-10-01T00:57:21.304Z,25.66
2022-10-01T00:57:31.419Z,25.66
2022-10-01T00:57:41.543Z,25.66
2022-10-01T00:57:51.546Z,25.66
2022-10-01T00:58:01.544Z,25.67
2022-10-01T00:58:11.916Z,25.66
2022-10-01T00:58:22.035Z,25.66
2022-10-01T00:58:32.151Z,25.65
2022-10-01T00:58:42.272Z,25.65
2022-10-01T00:58:52.394Z,25.66
2022-10-01T00:59:02.525Z,25.65
2022-10-01T00:59:12.654Z,25.65
2022-10-01T00:59:22.782Z,25.64
2022-10-01T00:59:32.783Z,25.65
2022-10-01T00:59:43.039Z,25.64
2022-10-01T00:59:53.032Z,25.64
2022-10-01T01:00:03.152Z,25.63
2022-10-01T01:00:13.411Z,25.63
2022-10-01T01:00:23.527Z,25.62
2022-10-01T01:00:33.644Z,25.62
2022-10-01T01:00:43.772Z,25.60
2022-10-01T01:00:53.918Z,25.60
2022-10-01T01:01:03.959Z,25.60
2022-10-01T01:01:14.253Z,25.59
2022-10-01T01:01:24.328Z,25.59
2022-10-01T01:01:34.639Z,25.58
2022-10-01T01:01:44.543Z,25.58
2022-10-01T01:01:54.524Z,25.58
2022-10-01T01:02:04.567Z,25.57
2022-10-01T01:02:14.633Z,25.57
2022-10-01T01:02:24.758Z,25.57
2022-10-01T01:02:34.834Z,25.57
2022-10-01T01:02:44.949Z,25.57
2022-10-01T01:02:54.991Z,25.56
2022-10-01T01:03:04.990Z,25.56
2022-10-01T01:03:14.988Z,25.56
2022-10-01T01:03:25.366Z,25.57
2022-10-01T01:03:35.480Z,25.56
2022-10-01T01:03:45.598Z,25.57
2022-10-01T01:03:55.724Z,25.56
2022-10-01T01:04:05.836Z,25.55
2022-10-01T01:04:15.956Z,25.56
2022-10-01T01:04:26.076Z,25.54
2022-10-01T01:04:36.189Z,25.55
2022-10-01T01:04:46.310Z,25.55
2022-10-01T01:04:56.445Z,25.55
2022-10-01T01:05:06.465Z,25.54
2022-10-01T01:05:16.558Z,25.55
2022-10-01T01:05:26.808Z,25.54
2022-10-01T01:05:36.807Z,25.55
2022-10-01T01:05:46.925Z,25.54
2022-10-01T01:05:57.171Z,25.54
2022-10-01T01:06:07.290Z,25.54
2022-10-01T01:06:17.405Z,25.53
2022-10-01T01:06:27.533Z,25.53
2022-10-01T01:06:37.525Z,25.53
2022-10-01T01:06:47.641Z,25.52
2022-10-01T01:06:57.972Z,25.52
2022-10-01T01:07:07.950Z,25.51
2022-10-01T01:07:18.064Z,25.52
2022-10-01T01:07:28.312Z,25.51
2022-10-01T01:07:38.428Z,25.52
2022-10-01T01:07:48.550Z,25.51
2022-10-01T01:07:58.672Z,25.51
2022-10-01T01:08:08.675Z,25.50
2022-10-01T01:08:18.798Z,25.50
2022-10-01T01:08:29.047Z,25.50
2022-10-01T01:08:39.045Z,25.49
2022-10-01T01:08:49.056Z,25.48
2022-10-01T01:08:59.429Z,25.49
2022-10-01T01:09:09.549Z,25.47
2022-10-01T01:09:19.549Z,25.47
2022-10-01T01:09:29.816Z,25.47
2022-10-01T01:09:39.807Z,25.47
2022-10-01T01:09:49.933Z,25.47
2022-10-01T01:10:00.248Z,25.47
2022-10-01T01:10:10.238Z,25.47
2022-10-01T01:10:20.406Z,25.46
2022-10-01T01:10:30.622Z,25.46
2022-10-01T01:10:40.737Z,25.46
2022-10-01T01:10:50.856Z,25.45
2022-10-01T01:11:00.976Z,25.45
2022-10-01T01:11:11.094Z,25.45
2022-10-01T01:11:21.215Z,25.45
2022-10-01T01:11:31.748Z,25.44
2022-10-01T01:11:41.450Z,25.44
2022-10-01T01:11:51.449Z,25.44
2022-10-01T01:12:01.708Z,25.45
2022-10-01T01:12:11.826Z,25.45
2022-10-01T01:12:21.823Z,25.43
2022-10-01T01:12:32.077Z,25.43
2022-10-01T01:12:42.196Z,25.43
2022-10-01T01:12:52.315Z,25.43
2022-10-01T01:13:02.439Z,25.43
2022-10-01T01:13:12.570Z,25.43
2022-10-01T01:13:22.567Z,25.42
2022-10-01T01:13:32.818Z,25.42
2022-10-01T01:13:42.935Z,25.42
2022-10-01T01:13:52.946Z,25.41
2022-10-01T01:14:03.192Z,25.41
2022-10-01T01:14:13.307Z,25.41
2022-10-01T01:14:23.311Z,25.41
2022-10-01T01:14:33.562Z,25.41
2022-10-01T01:14:43.678Z,25.41
2022-10-01T01:14:53.800Z,25.41
2022-10-01T01:15:03.933Z,25.41
2022-10-01T01:15:14.046Z,25.40
2022-10-01T01:15:24.092Z,25.41
2022-10-01T01:15:34.405Z,25.39
2022-10-01T01:15:44.439Z,25.40
2022-10-01T01:15:54.519Z,25.40
2022-10-01T01:16:04.844Z,25.40
2022-10-01T01:16:14.857Z,25.40
2022-10-01T01:16:24.990Z,25.39
2022-10-01T01:16:35.246Z,25.38
2022-10-01T01:16:45.364Z,25.39
2022-10-01T01:16:55.480Z,25.38
2022-10-01T01:17:05.618Z,25.39
2022-10-01T01:17:15.738Z,25.39
2022-10-01T01:17:25.738Z,25.38
2022-10-01T01:17:35.985Z,25.38
2022-10-01T01:17:46.101Z,25.38
2022-10-01T01:17:56.220Z,25.37
2022-10-01T01:18:06.345Z,25.37
2022-10-01T01:18:16.461Z,25.38
2022-10-01T01:18:26.578Z,25.37
2022-10-01T01:18:36.707Z,25.37
2022-10-01T01:18:46.701Z,25.37
2022-10-01T01:18:56.701Z,25.36
2022-10-01T01:19:07.077Z,25.37
2022-10-01T01:19:17.198Z,25.37
2022-10-01T01:19:27.316Z,25.36
2022-10-01T01:19:37.446Z,25.36
2022-10-01T01:19:47.451Z,25.35
2022-10-01T01:19:57.571Z,25.35
2022-10-01T01:20:07.863Z,25.35
2022-10-01T01:20:17.877Z,25.35
2022-10-01T01:20:27.972Z,25.35
2022-10-01T01:20:38.221Z,25.34
2022-10-01T01:20:48.340Z,25.34
2022-10-01T01:20:58.458Z,25.35
2022-10-01T01:21:08.578Z,25.34
2022-10-01T01:21:18.698Z,25.34
2022-10-01T01:21:28.696Z,25.34
2022-10-01T01:21:38.941Z,25.33
2022-10-01T01:21:49.058Z,25.33
2022-10-01T01:21:59.219Z,25.33
2022-10-01T01:22:09.319Z,25.32
2022-10-01T01:22:19.442Z,25.32
2022-10-01T01:22:29.551Z,25.32
2022-10-01T01:22:39.673Z,25.32
2022-10-01T01:22:49.790Z,25.32
2022-10-01T01:22:59.908Z,25.32
2022-10-01T01:23:10.033Z,25.32
2022-10-01T01:23:20.157Z,25.32
2022-10-01T01:23:30.171Z,25.32
2022-10-01T01:23:40.420Z,25.32
2022-10-01T01:23:50.421Z,25.32
2022-10-01T01:24:00.538Z,25.32
2022-10-01T01:24:10.802Z,25.32
2022-10-01T01:24:20.921Z,25.31
2022-10-01T01:24:30.915Z,25.31
2022-10-01T01:24:41.169Z,25.31
2022-10-01T01:24:51.166Z,25.32
2022-10-01T01:25:01.163Z,25.30
2022-10-01T01:25:11.548Z,25.30
2022-10-01T01:25:21.536Z,25.30
2022-10-01T01:25:31.541Z,25.29
2022-10-01T01:25:41.537Z,25.28
2022-10-01T01:25:51.664Z,25.28
2022-10-01T01:26:01.659Z,25.29
2022-10-01T01:26:11.815Z,25.29
2022-10-01T01:26:21.821Z,25.28
2022-10-01T01:26:31.939Z,25.28
2022-10-01T01:26:41.935Z,25.27
2022-10-01T01:26:52.060Z,25.27
2022-10-01T01:27:02.175Z,25.27
2022-10-01T01:27:12.295Z,25.27
2022-10-01T01:27:22.295Z,25.27
2022-10-01T01:27:32.417Z,25.26
2022-10-01T01:27:42.634Z,25.27
2022-10-01T01:27:52.738Z,25.26
2022-10-01T01:28:02.791Z,25.26
2022-10-01T01:28:12.853Z,25.26
2022-10-01T01:28:23.008Z,25.26
2022-10-01T01:28:32.925Z,25.25
2022-10-01T01:28:42.909Z,25.26
2022-10-01T01:28:53.026Z,25.26
2022-10-01T01:29:03.091Z,25.26
2022-10-01T01:29:13.080Z,25.26
2022-10-01T01:29:23.079Z,25.25
2022-10-01T01:29:33.454Z,25.25
2022-10-01T01:29:43.468Z,25.25
2022-10-01T01:29:53.586Z,25.25
2022-10-01T01:30:03.838Z,25.24
2022-10-01T01:30:13.967Z,25.25
2022-10-01T01:30:23.966Z,25.24
2022-10-01T01:30:34.238Z,25.24
2022-10-01T01:30:44.260Z,25.24
2022-10-01T01:30:54.339Z,25.24
2022-10-01T01:31:04.337Z,25.24
2022-10-01T01:31:14.371Z,25.23
2022-10-01T01:31:24.424Z,25.24
2022-10-01T01:31:34.741Z,25.23
2022-10-01T01:31:44.582Z,25.23
2022-10-01T01:31:54.566Z,25.23
2022-10-01T01:32:04.685Z,25.22
2022-10-01T01:32:15.205Z,25.23
2022-10-01T01:32:25.071Z,25.22
2022-10-01T01:32:35.074Z,25.22
2022-10-01T01:32:45.321Z,25.22
2022-10-01T01:32:55.449Z,25.22
2022-10-01T01:33:05.552Z,25.23
2022-10-01T01:33:15.672Z,25.22
2022-10-01T01:33:25.788Z,25.22
2022-10-01T01:33:35.906Z,25.22
2022-10-01T01:33:46.036Z,25.22
2022-10-01T01:33:56.152Z,25.22
2022-10-01T01:34:06.268Z,25.21
2022-10-01T01:34:16.392Z,25.21
2022-10-01T01:34:26.392Z,25.20
2022-10-01T01:34:36.512Z,25.20
2022-10-01T01:34:46.769Z,25.20
2022-10-01T01:34:56.888Z,25.20
2022-10-01T01:35:06.886Z,25.21
2022-10-01T01:35:17.133Z,25.20
2022-10-01T01:35:27.271Z,25.20
2022-10-01T01:35:37.377Z,25.20
2022-10-01T01:35:47.511Z,25.19
2022-10-01T01:35:57.628Z,25.20
2022-10-01T01:36:07.745Z,25.19
2022-10-01T01:36:17.869Z,25.19
2022-10-01T01:36:28.085Z,25.20
2022-10-01T01:36:38.069Z,25.19
2022-10-01T01:36:48.328Z,25.19
2022-10-01T01:36:58.433Z,25.18
2022-10-01T01:37:08.552Z,25.18
2022-10-01T01:37:18.679Z,25.18
2022-10-01T01:37:28.672Z,25.19
2022-10-01T01:37:38.793Z,25.18
2022-10-01T01:37:49.045Z,25.18
2022-10-01T01:37:59.044Z,25.19
2022-10-01T01:38:09.160Z,25.19
2022-10-01T01:38:19.409Z,25.18
2022-10-01T01:38:29.528Z,25.18
2022-10-01T01:38:39.644Z,25.18
2022-10-01T01:38:49.784Z,25.17
2022-10-01T01:38:59.798Z,25.17
2022-10-01T01:39:09.793Z,25.17
2022-10-01T01:39:20.169Z,25.17
2022-10-01T01:39:30.169Z,25.17
2022-10-01T01:39:40.288Z,25.17
2022-10-01T01:39:50.535Z,25.17
2022-10-01T01:40:00.651Z,25.17
2022-10-01T01:40:10.770Z,25.17
2022-10-01T01:40:20.901Z,25.16
2022-10-01T01:40:30.894Z,25.17
2022-10-01T01:40:41.014Z,25.15
2022-10-01T01:40:51.259Z,25.16
2022-10-01T01:41:01.380Z,25.15
2022-10-01T01:41:11.502Z,25.16
2022-10-01T01:41:21.626Z,25.17
2022-10-01T01:41:32.019Z,25.16
2022-10-01T01:41:41.705Z,25.15
2022-10-01T01:41:52.094Z,25.15
2022-10-01T01:42:02.201Z,25.15
2022-10-01T01:42:12.315Z,25.15
2022-10-01T01:42:22.465Z,25.14
2022-10-01T01:42:32.443Z,25.15
2022-10-01T01:42:42.564Z,25.14
2022-10-01T01:42:52.809Z,25.14
2022-10-01T01:43:02.925Z,25.13
2022-10-01T01:43:13.042Z,25.14
2022-10-01T01:43:23.168Z,25.14
2022-10-01T01:43:33.193Z,25.14
2022-10-01T01:43:43.282Z,25.14
2022-10-01T01:43:53.530Z,25.13
2022-10-01T01:44:03.650Z,25.14
2022-10-01T01:44:13.655Z,25.13
2022-10-01T01:44:23.920Z,25.14
2022-10-01T01:44:33.951Z,25.14
2022-10-01T01:44:43.945Z,25.13
2022-10-01T01:44:54.319Z,25.13
2022-10-01T01:45:04.448Z,25.12
2022-10-01T01:45:14.438Z,25.13
2022-10-01T01:45:24.690Z,25.13
2022-10-01T01:45:34.724Z,25.13
2022-10-01T01:45:44.774Z,25.12
2022-10-01T01:45:54.842Z,25.12
2022-10-01T01:46:04.895Z,25.11
2022-10-01T01:46:14.912Z,25.11
2022-10-01T01:46:25.020Z,25.11
2022-10-01T01:46:35.033Z,25.11
2022-10-01T01:46:45.150Z,25.10
2022-10-01T01:46:55.268Z,25.11
2022-10-01T01:47:05.392Z,25.10
2022-10-01T01:47:15.508Z,25.11
2022-10-01T01:47:25.624Z,25.11
2022-10-01T01:47:35.635Z,25.11
2022-10-01T01:47:45.633Z,25.10
2022-10-01T01:47:55.752Z,25.10
2022-10-01T01:48:06.000Z,25.11
2022-10-01T01:48:15.998Z,25.10
2022-10-01T01:48:26.127Z,25.10
2022-10-01T01:48:36.401Z,25.09
2022-10-01T01:48:46.388Z,25.09
2022-10-01T01:48:56.501Z,25.09
2022-10-01T01:49:06.749Z,25.09
2022-10-01T01:49:16.865Z,25.09
2022-10-01T01:49:26.983Z,25.10
2022-10-01T01:49:37.103Z,25.09
2022-10-01T01:49:47.230Z,25.09
2022-10-01T01:49:57.221Z,25.09
2022-10-01T01:50:07.469Z,25.09
2022-10-01T01:50:17.466Z,25.09
2022-10-01T01:50:27.585Z,25.09
2022-10-01T01:50:37.857Z,25.08
2022-10-01T01:50:47.839Z,25.07
2022-10-01T01:50:57.967Z,25.08
2022-10-01T01:51:08.216Z,25.08
2022-10-01T01:51:18.331Z,25.08
2022-10-01T01:51:28.449Z,25.07
2022-10-01T01:51:38.583Z,25.07
2022-10-01T01:51:48.570Z,25.07
2022-10-01T01:51:58.685Z,25.08
2022-10-01T01:52:08.940Z,25.07
2022-10-01T01:52:18.942Z,25.07
2022-10-01T01:52:29.078Z,25.07
2022-10-01T01:52:39.335Z,25.08
2022-10-01T01:52:49.438Z,25.08
2022-10-01T01:52:59.553Z,25.08
2022-10-01T01:53:09.674Z,25.07
2022-10-01T01:53:19.788Z,25.07
2022-10-01T01:53:29.948Z,25.07
2022-10-01T01:53:40.071Z,25.07
2022-10-01T01:53:50.207Z,25.07
2022-10-01T01:54:00.197Z,25.07
2022-10-01T01:54:10.449Z,25.07
2022-10-01T01:54:20.566Z,25.07
2022-10-01T01:54:30.568Z,25.07
2022-10-01T01:54:40.822Z,25.07
2022-10-01T01:54:50.950Z,25.07
2022-10-01T01:55:00.952Z,25.06
2022-10-01T01:55:11.200Z,25.06
2022-10-01T01:55:21.203Z,25.06
2022-10-01T01:55:31.312Z,25.06
2022-10-01T01:55:41.559Z,25.06
2022-10-01T01:55:51.689Z,25.05
2022-10-01T01:56:01.686Z,25.05
2022-10-01T01:56:11.934Z,25.06
2022-10-01T01:56:22.058Z,25.05
2022-10-01T01:56:32.053Z,25.04
2022-10-01T01:56:42.311Z,25.05
2022-10-01T01:56:52.425Z,25.05
2022-10-01T01:57:02.425Z,25.05
2022-10-01T01:57:12.673Z,25.05
2022-10-01T01:57:22.793Z,25.05
2022-10-01T01:57:32.926Z,25.05
2022-10-01T01:57:43.046Z,25.05
2022-10-01T01:57:53.167Z,25.05
2022-10-01T01:58:03.166Z,25.04
2022-10-01T01:58:13.414Z,25.04
2022-10-01T01:58:23.420Z,25.05
2022-10-01T01:58:33.536Z,25.04
2022-10-01T01:58:43.788Z,25.04
2022-10-01T01:58:53.792Z,25.04
2022-10-01T01:59:03.907Z,25.04
2022-10-01T01:59:14.153Z,25.04
2022-10-01T01:59:24.277Z,25.04
2022-10-01T01:59:34.386Z,25.04
2022-10-01T01:59:44.518Z,25.03
2022-10-01T01:59:54.742Z,25.04
2022-10-01T02:00:04.727Z,25.04
2022-10-01T02:00:14.993Z,25.03
2022-10-01T02:00:25.111Z,25.04
2022-10-01T02:00:35.230Z,25.04
2022-10-01T02:00:45.355Z,25.03
2022-10-01T02:00:55.481Z,25.03
2022-10-01T02:01:05.628Z,25.03
2022-10-01T02:01:15.783Z,25.03
2022-10-01T02:01:25.814Z,25.03
2022-10-01T02:01:36.232Z,25.03
2022-10-01T02:01:45.899Z,25.03
2022-10-01T02:01:56.048Z,25.03
2022-10-01T02:02:06.083Z,25.02
2022-10-01T02:02:16.144Z,25.01
2022-10-01T02:02:26.095Z,25.02
2022-10-01T02:02:36.154Z,25.02
2022-10-01T02:02:46.231Z,25.02
2022-10-01T02:02:56.638Z,25.02
2022-10-01T02:03:06.515Z,25.02
2022-10-01T02:03:16.632Z,25.02
2022-10-01T02:03:26.889Z,25.02
2022-10-01T02:03:37.002Z,25.01
2022-10-01T02:03:47.002Z,25.02
2022-10-01T02:03:57.250Z,25.01
2022-10-01T02:04:07.366Z,25.02
2022-10-01T02:04:17.480Z,25.01
2022-10-01T02:04:27.629Z,25.01
2022-10-01T02:04:37.722Z,25.01
2022-10-01T02:04:47.837Z,25.02
2022-10-01T02:04:57.961Z,25.01
2022-10-01T02:05:08.081Z,25.01
2022-10-01T02:05:18.081Z,25.01
2022-10-01T02:05:28.342Z,25.01
2022-10-01T02:05:38.332Z,25.01
2022-10-01T02:05:48.470Z,25.02
2022-10-01T02:05:58.697Z,25.02
2022-10-01T02:06:08.831Z,25.02
2022-10-01T02:06:18.837Z,25.02
2022-10-01T02:06:29.165Z,25.01
2022-10-01T02:06:39.155Z,25.01
2022-10-01T02:06:49.280Z,25.00
2022-10-01T02:06:59.519Z,25.01
2022-10-01T02:07:09.634Z,25.01
2022-10-01T02:07:19.759Z,25.00
2022-10-01T02:07:29.892Z,25.00
2022-10-01T02:07:39.893Z,25.00
2022-10-01T02:07:49.882Z,25.00
2022-10-01T02:08:00.254Z,25.00
2022-10-01T02:08:10.254Z,25.00
2022-10-01T02:08:20.375Z,25.00
2022-10-01T02:08:30.638Z,25.00
2022-10-01T02:08:40.626Z,25.00
2022-10-01T02:08:50.751Z,25.00
2022-10-01T02:09:00.994Z,25.00
2022-10-01T02:09:11.112Z,24.99
2022-10-01T02:09:21.227Z,25.00
2022-10-01T02:09:31.357Z,25.00
2022-10-01T02:09:41.350Z,25.00
2022-10-01T02:09:51.466Z,25.00
2022-10-01T02:10:01.715Z,25.01
2022-10-01T02:10:11.829Z,25.01